Time;durP1;ratioP1;P1;durP2;ratioP2;P2;SDS_P1;SDS_P2;PMS_P1;PMS_P2;Temp;Humidity;BMP_temperature;BMP_pressure;BME280_temperature;BME280_humidity;BME280_pressure;Samples;Min_cycle;Max_cycle;Signal;HPM_P1;HPM_P2
2023/04/08 00:01:16;;;;;;;160.30;24.40;;;;;;;;;;4997481;28;92608;-71
2023/04/08 00:03:42;;;;;;;145.70;24.52;;;;;;;;;;4998094;28;94260;-70
2023/04/08 00:06:09;;;;;;;96.78;22.15;;;;;;;;;;4997746;28;93369;-71
2023/04/08 00:08:35;;;;;;;96.80;23.85;;;;;;;;;;4995851;28;91749;-70
2023/04/08 00:11:01;;;;;;;100.40;22.63;;;;;;;;;;4995675;28;92790;-71
2023/04/08 00:13:28;;;;;;;95.40;23.88;;;;;;;;;;4998515;28;93426;-71
2023/04/08 00:15:54;;;;;;;154.98;25.52;;;;;;;;;;4994096;28;94845;-71
2023/04/08 00:18:21;;;;;;;123.97;24.00;;;;;;;;;;4995345;28;93576;-70
2023/04/08 00:20:47;;;;;;;78.65;24.00;;;;;;;;;;4995428;28;92959;-71
2023/04/08 00:23:13;;;;;;;95.10;24.55;;;;;;;;;;4995490;28;93215;-71
2023/04/08 00:25:40;;;;;;;46.63;22.33;;;;;;;;;;4993606;28;93556;-71
2023/04/08 00:28:06;;;;;;;199.23;24.88;;;;;;;;;;4994402;28;92580;-71
2023/04/08 00:30:32;;;;;;;248.07;25.90;;;;;;;;;;4995335;28;93702;-71
2023/04/08 00:32:59;;;;;;;220.75;25.65;;;;;;;;;;4995765;28;93807;-71
2023/04/08 00:35:25;;;;;;;122.45;24.00;;;;;;;;;;4998155;28;92474;-71
2023/04/08 00:37:51;;;;;;;87.40;23.30;;;;;;;;;;4995239;28;93883;-71
2023/04/08 00:40:18;;;;;;;141.57;26.70;;;;;;;;;;4992277;28;94832;-72
2023/04/08 00:42:44;;;;;;;233.48;24.90;;;;;;;;;;5003773;28;95683;-70
2023/04/08 00:45:10;;;;;;;190.25;23.73;;;;;;;;;;5007895;28;94441;-70
2023/04/08 00:47:37;;;;;;;158.27;23.85;;;;;;;;;;5009696;28;94039;-70
2023/04/08 00:50:03;;;;;;;225.23;23.13;;;;;;;;;;4996806;28;94741;-71
2023/04/08 00:52:30;;;;;;;154.88;21.15;;;;;;;;;;4997026;28;93404;-71
2023/04/08 00:54:56;;;;;;;363.15;24.50;;;;;;;;;;5013374;28;92524;-71
2023/04/08 00:57:22;;;;;;;305.50;21.92;;;;;;;;;;4999184;28;93118;-71
2023/04/08 00:59:49;;;;;;;281.77;22.77;;;;;;;;;;4993831;28;92454;-71
2023/04/08 01:02:25;;;;;;;369.55;25.35;;;;;;;;;;4991239;28;93217;-71
2023/04/08 01:05:01;;;;;;;252.23;23.25;;;;;;;;;;5003171;28;95029;-71
2023/04/08 01:07:31;;;;;;;200.60;21.90;;;;;;;;;;5000418;28;95083;-71
2023/04/08 01:10:00;;;;;;;249.75;21.80;;;;;;;;;;4991287;28;93109;-71
2023/04/08 01:12:31;;;;;;;282.50;21.80;;;;;;;;;;5014874;28;93588;-71
2023/04/08 01:15:06;;;;;;;335.90;22.75;;;;;;;;;;4988063;28;93527;-71
2023/04/08 01:17:34;;;;;;;149.55;19.65;;;;;;;;;;4981487;28;92748;-72
2023/04/08 01:20:02;;;;;;;295.45;21.70;;;;;;;;;;4977624;28;93669;-71
2023/04/08 01:22:47;;;;;;;211.07;21.13;;;;;;;;;;4994548;28;93122;-71
2023/04/08 01:25:16;;;;;;;134.65;18.42;;;;;;;;;;5008628;28;94565;-71
2023/04/08 01:27:42;;;;;;;137.05;16.80;;;;;;;;;;4994712;28;92519;-72
2023/04/08 01:30:09;;;;;;;282.08;21.73;;;;;;;;;;4992649;28;94831;-71
2023/04/08 01:32:37;;;;;;;300.48;23.20;;;;;;;;;;4992653;28;93717;-71
2023/04/08 01:35:04;;;;;;;226.95;20.13;;;;;;;;;;4994580;28;92559;-71
2023/04/08 01:37:31;;;;;;;296.77;21.73;;;;;;;;;;5004008;28;93444;-72
2023/04/08 01:39:59;;;;;;;236.30;22.13;;;;;;;;;;4994966;28;93504;-71
2023/04/08 01:42:27;;;;;;;217.57;20.92;;;;;;;;;;5013403;28;92441;-71
2023/04/08 01:44:54;;;;;;;320.38;23.90;;;;;;;;;;5008136;28;93515;-71
2023/04/08 01:47:21;;;;;;;350.40;23.65;;;;;;;;;;5003802;28;91802;-71
2023/04/08 01:49:49;;;;;;;258.95;22.48;;;;;;;;;;5008493;28;92728;-71
2023/04/08 01:52:17;;;;;;;340.33;21.17;;;;;;;;;;4993109;28;94433;-71
2023/04/08 01:54:43;;;;;;;132.05;19.50;;;;;;;;;;5002768;28;94877;-71
2023/04/08 01:57:11;;;;;;;277.08;18.95;;;;;;;;;;4989500;28;95630;-71
2023/04/08 01:59:39;;;;;;;203.00;18.52;;;;;;;;;;4998961;28;93502;-71
2023/04/08 02:02:07;;;;;;;259.92;18.23;;;;;;;;;;4995148;28;92703;-71
2023/04/08 02:04:34;;;;;;;227.68;17.67;;;;;;;;;;5000846;28;94324;-71
2023/04/08 02:07:01;;;;;;;305.85;20.60;;;;;;;;;;4994272;28;92601;-71
2023/04/08 02:09:28;;;;;;;260.73;19.92;;;;;;;;;;4996595;28;93195;-71
2023/04/08 02:11:56;;;;;;;310.10;20.17;;;;;;;;;;4997087;28;93678;-71
2023/04/08 02:14:22;;;;;;;313.75;22.23;;;;;;;;;;5000529;28;92918;-71
2023/04/08 02:16:52;;;;;;;273.95;20.70;;;;;;;;;;4999715;28;93539;-70
2023/04/08 02:19:24;;;;;;;419.83;24.83;;;;;;;;;;5011798;28;96313;-71
2023/04/08 02:21:54;;;;;;;140.25;20.48;;;;;;;;;;4995348;28;92493;-71
2023/04/08 02:24:21;;;;;;;302.17;25.20;;;;;;;;;;5006601;28;93459;-71
2023/04/08 02:26:49;;;;;;;221.75;20.92;;;;;;;;;;5003265;28;92504;-71
2023/04/08 02:29:16;;;;;;;347.08;25.98;;;;;;;;;;4980111;28;93352;-71
2023/04/08 02:31:42;;;;;;;253.85;23.00;;;;;;;;;;4999260;28;94722;-71
2023/04/08 02:34:09;;;;;;;272.38;22.58;;;;;;;;;;5011902;28;92954;-71
2023/04/08 02:36:36;;;;;;;111.07;19.08;;;;;;;;;;5012050;28;93484;-71
2023/04/08 02:39:02;;;;;;;172.27;17.75;;;;;;;;;;4999352;28;96230;-71
2023/04/08 02:41:29;;;;;;;231.88;19.08;;;;;;;;;;4996336;28;92511;-71
2023/04/08 02:43:56;;;;;;;203.18;18.55;;;;;;;;;;5007591;28;94790;-71
2023/04/08 02:46:22;;;;;;;212.40;18.60;;;;;;;;;;5009037;28;93586;-71
2023/04/08 02:48:49;;;;;;;247.75;19.15;;;;;;;;;;5008306;28;93317;-70
2023/04/08 02:51:15;;;;;;;212.18;16.63;;;;;;;;;;5009255;28;94944;-71
2023/04/08 02:53:41;;;;;;;296.58;19.75;;;;;;;;;;5010700;28;92489;-71
2023/04/08 02:56:11;;;;;;;235.70;17.38;;;;;;;;;;5009089;28;93026;-71
2023/04/08 02:58:37;;;;;;;219.73;18.67;;;;;;;;;;5013802;28;93220;-73
2023/04/08 03:01:04;;;;;;;193.40;16.35;;;;;;;;;;5004494;28;91785;-71
2023/04/08 03:03:31;;;;;;;243.95;20.38;;;;;;;;;;5008077;28;92445;-71
2023/04/08 03:05:57;;;;;;;498.38;28.95;;;;;;;;;;4996173;28;94895;-72
2023/04/08 03:08:24;;;;;;;270.58;17.63;;;;;;;;;;5000842;28;94925;-71
2023/04/08 03:10:51;;;;;;;122.07;18.25;;;;;;;;;;5000228;28;93224;-71
2023/04/08 03:13:17;;;;;;;263.17;19.48;;;;;;;;;;5001656;28;93749;-71
2023/04/08 03:15:43;;;;;;;200.93;20.80;;;;;;;;;;5013256;28;93268;-70
2023/04/08 03:18:10;;;;;;;215.50;18.48;;;;;;;;;;4998017;28;93502;-73
2023/04/08 03:20:36;;;;;;;182.40;18.55;;;;;;;;;;4998957;28;92557;-72
2023/04/08 03:23:02;;;;;;;93.88;16.45;;;;;;;;;;5003355;28;93250;-72
2023/04/08 03:25:30;;;;;;;213.10;18.38;;;;;;;;;;5006906;28;92711;-73
2023/04/08 03:27:57;;;;;;;171.00;17.48;;;;;;;;;;5014414;28;92529;-72
2023/04/08 03:30:23;;;;;;;291.70;19.27;;;;;;;;;;5013213;28;93520;-72
2023/04/08 03:32:50;;;;;;;274.33;19.30;;;;;;;;;;5011087;28;96558;-73
2023/04/08 03:35:16;;;;;;;128.13;16.40;;;;;;;;;;5012002;28;95718;-72
2023/04/08 03:37:43;;;;;;;102.43;17.98;;;;;;;;;;4995224;28;94914;-72
2023/04/08 03:40:09;;;;;;;103.90;16.63;;;;;;;;;;4997829;28;92855;-72
2023/04/08 03:42:36;;;;;;;100.45;16.42;;;;;;;;;;5013537;28;93306;-71
2023/04/08 03:45:02;;;;;;;198.25;18.98;;;;;;;;;;5001514;28;93586;-71
2023/04/08 03:47:29;;;;;;;150.65;20.20;;;;;;;;;;5001304;28;93703;-72
2023/04/08 03:49:55;;;;;;;158.77;18.40;;;;;;;;;;5009167;28;94316;-71
2023/04/08 03:52:23;;;;;;;203.18;19.30;;;;;;;;;;5005079;28;93509;-71
2023/04/08 03:54:50;;;;;;;170.57;18.20;;;;;;;;;;5009190;28;93174;-71
2023/04/08 03:57:16;;;;;;;279.20;23.63;;;;;;;;;;5009096;28;97002;-71
2023/04/08 03:59:42;;;;;;;124.45;18.10;;;;;;;;;;5004110;28;92548;-72
2023/04/08 04:02:09;;;;;;;289.45;21.77;;;;;;;;;;4998502;28;93215;-73
2023/04/08 04:04:35;;;;;;;278.00;22.90;;;;;;;;;;4999990;28;93291;-72
2023/04/08 04:07:02;;;;;;;322.92;24.17;;;;;;;;;;4997903;28;92486;-72
2023/04/08 04:09:28;;;;;;;86.18;19.45;;;;;;;;;;4985269;28;93157;-72
2023/04/08 04:11:54;;;;;;;109.75;19.73;;;;;;;;;;5009887;28;93518;-72
2023/04/08 04:14:21;;;;;;;47.25;19.38;;;;;;;;;;5004063;28;91692;-71
2023/04/08 04:16:47;;;;;;;91.25;18.98;;;;;;;;;;4995591;28;93899;-73
2023/04/08 04:19:13;;;;;;;135.35;19.38;;;;;;;;;;4997249;28;92434;-71
2023/04/08 04:21:40;;;;;;;112.57;19.92;;;;;;;;;;5007761;28;94959;-72
2023/04/08 04:24:06;;;;;;;84.07;21.77;;;;;;;;;;5010001;28;93225;-71
2023/04/08 04:26:32;;;;;;;61.50;20.13;;;;;;;;;;5011931;28;92515;-72
2023/04/08 04:28:59;;;;;;;55.03;20.33;;;;;;;;;;5004013;28;93801;-72
2023/04/08 04:31:25;;;;;;;33.88;19.33;;;;;;;;;;5008144;28;93402;-71
2023/04/08 04:33:52;;;;;;;79.45;20.05;;;;;;;;;;5012779;28;92908;-72
2023/04/08 04:36:18;;;;;;;100.32;19.80;;;;;;;;;;5011362;28;93416;-72
2023/04/08 04:38:45;;;;;;;60.30;18.80;;;;;;;;;;5010069;28;91736;-72
2023/04/08 04:41:13;;;;;;;143.55;19.58;;;;;;;;;;5003844;28;93495;-72
2023/04/08 04:43:40;;;;;;;71.00;17.70;;;;;;;;;;5012708;28;93563;-71
2023/04/08 04:46:07;;;;;;;195.77;22.05;;;;;;;;;;5006337;28;95979;-71
2023/04/08 04:48:34;;;;;;;126.65;20.83;;;;;;;;;;5009736;28;96207;-71
2023/04/08 04:51:04;;;;;;;152.02;21.65;;;;;;;;;;5012504;28;94318;-72
2023/04/08 04:53:30;;;;;;;111.15;19.48;;;;;;;;;;4997775;28;92553;-71
2023/04/08 04:55:57;;;;;;;123.13;20.15;;;;;;;;;;4990742;28;94314;-71
2023/04/08 04:58:23;;;;;;;85.40;18.92;;;;;;;;;;4998148;28;92647;-71
2023/04/08 05:00:50;;;;;;;76.50;19.48;;;;;;;;;;5006557;28;93331;-72
2023/04/08 05:03:16;;;;;;;106.57;19.55;;;;;;;;;;5001204;28;91687;-71
2023/04/08 05:05:42;;;;;;;106.45;20.70;;;;;;;;;;5010761;28;92417;-72
2023/04/08 05:08:09;;;;;;;137.52;19.77;;;;;;;;;;4995463;28;93163;-72
2023/04/08 05:10:35;;;;;;;219.32;22.67;;;;;;;;;;5004517;28;96830;-71
2023/04/08 05:13:01;;;;;;;114.97;19.85;;;;;;;;;;5009193;28;92580;-72
2023/04/08 05:15:27;;;;;;;130.05;20.15;;;;;;;;;;5009085;28;93183;-72
2023/04/08 05:17:54;;;;;;;152.18;19.15;;;;;;;;;;4996959;28;94234;-72
2023/04/08 05:20:20;;;;;;;192.95;18.77;;;;;;;;;;4985808;28;92698;-71
2023/04/08 05:22:48;;;;;;;96.28;18.52;;;;;;;;;;4993870;28;94532;-71
2023/04/08 05:25:14;;;;;;;395.58;27.75;;;;;;;;;;4995793;28;94229;-71
2023/04/08 05:27:40;;;;;;;112.50;18.63;;;;;;;;;;5004232;28;93467;-72
2023/04/08 05:30:07;;;;;;;162.07;21.35;;;;;;;;;;5009508;28;94437;-71
2023/04/08 05:32:34;;;;;;;142.90;19.63;;;;;;;;;;5010778;28;92443;-71
2023/04/08 05:35:01;;;;;;;249.10;21.35;;;;;;;;;;5009835;28;94891;-71
2023/04/08 05:37:28;;;;;;;192.10;20.77;;;;;;;;;;5007749;28;93496;-71
2023/04/08 05:39:54;;;;;;;205.23;20.55;;;;;;;;;;5002916;28;92784;-71
2023/04/08 05:42:20;;;;;;;339.75;28.40;;;;;;;;;;5011960;28;94316;-71
2023/04/08 05:44:47;;;;;;;277.17;24.45;;;;;;;;;;5010464;28;93404;-71
2023/04/08 05:47:13;;;;;;;210.05;20.73;;;;;;;;;;5000411;28;93540;-71
2023/04/08 05:49:40;;;;;;;247.10;21.90;;;;;;;;;;4984512;28;93437;-72
2023/04/08 05:52:06;;;;;;;176.00;17.58;;;;;;;;;;4991749;28;92632;-72
2023/04/08 05:54:33;;;;;;;146.65;17.38;;;;;;;;;;4999237;28;92486;-72
2023/04/08 05:56:59;;;;;;;158.63;19.25;;;;;;;;;;4996366;28;93350;-72
2023/04/08 05:59:25;;;;;;;155.75;18.13;;;;;;;;;;5004697;28;94897;-72
2023/04/08 06:01:53;;;;;;;160.55;18.70;;;;;;;;;;5015335;28;95684;-72
2023/04/08 06:04:20;;;;;;;156.77;17.15;;;;;;;;;;5014127;28;92468;-71
2023/04/08 06:06:46;;;;;;;103.38;17.98;;;;;;;;;;5013809;28;93232;-72
2023/04/08 06:09:13;;;;;;;110.93;16.45;;;;;;;;;;4996471;28;94802;-72
2023/04/08 06:11:39;;;;;;;56.42;14.90;;;;;;;;;;4994485;28;92453;-71
2023/04/08 06:14:05;;;;;;;42.72;14.23;;;;;;;;;;5005994;28;93200;-71
2023/04/08 06:16:32;;;;;;;29.27;13.32;;;;;;;;;;5009483;28;92543;-71
2023/04/08 06:18:58;;;;;;;19.80;13.05;;;;;;;;;;4993030;28;92450;-74
2023/04/08 06:21:25;;;;;;;16.55;12.23;;;;;;;;;;4991191;28;93174;-73
2023/04/08 06:23:51;;;;;;;15.05;11.23;;;;;;;;;;4992075;28;94840;-74
2023/04/08 06:26:18;;;;;;;15.55;12.10;;;;;;;;;;4992234;28;95650;-74
2023/04/08 06:28:44;;;;;;;17.55;12.50;;;;;;;;;;4993656;28;93509;-73
2023/04/08 06:31:10;;;;;;;16.85;12.20;;;;;;;;;;5010328;28;92426;-73
2023/04/08 06:33:37;;;;;;;16.15;12.50;;;;;;;;;;5013672;28;93221;-73
2023/04/08 06:36:03;;;;;;;17.25;13.27;;;;;;;;;;4998447;28;93521;-74
2023/04/08 06:38:30;;;;;;;19.02;13.45;;;;;;;;;;4993201;28;92403;-74
2023/04/08 06:41:03;;;;;;;19.60;13.80;;;;;;;;;;5008751;28;94286;-73
2023/04/08 06:43:30;;;;;;;19.10;13.60;;;;;;;;;;5016401;28;94007;-73
2023/04/08 06:45:57;;;;;;;21.00;14.13;;;;;;;;;;5009506;28;93295;-73
2023/04/08 06:48:27;;;;;;;18.08;12.98;;;;;;;;;;4991654;28;96930;-73
2023/04/08 06:50:54;;;;;;;17.13;12.35;;;;;;;;;;5006955;28;92468;-73
2023/04/08 06:53:22;;;;;;;16.10;11.95;;;;;;;;;;4999432;28;94057;-73
2023/04/08 06:55:48;;;;;;;14.10;10.82;;;;;;;;;;5005446;28;93497;-73
2023/04/08 06:58:14;;;;;;;22.58;12.45;;;;;;;;;;4993198;28;92387;-75
2023/04/08 07:00:41;;;;;;;18.20;12.05;;;;;;;;;;5004274;28;94072;-73
2023/04/08 07:03:07;;;;;;;20.77;12.00;;;;;;;;;;4995911;28;94368;-73
2023/04/08 07:05:37;;;;;;;23.02;13.55;;;;;;;;;;4997613;28;93709;-74
2023/04/08 07:08:04;;;;;;;18.98;13.05;;;;;;;;;;5003514;28;93690;-73
2023/04/08 07:10:31;;;;;;;21.70;15.75;;;;;;;;;;4992997;28;92843;-74
2023/04/08 07:12:57;;;;;;;31.73;16.08;;;;;;;;;;4991043;28;94802;-74
2023/04/08 07:15:23;;;;;;;21.35;14.55;;;;;;;;;;4994074;28;94204;-74
2023/04/08 07:17:50;;;;;;;18.65;13.73;;;;;;;;;;5000170;28;92366;-74
2023/04/08 07:20:17;;;;;;;16.88;12.50;;;;;;;;;;5005718;28;93300;-73
2023/04/08 07:22:43;;;;;;;22.15;12.70;;;;;;;;;;4992883;28;93331;-73
2023/04/08 07:25:10;;;;;;;21.60;12.82;;;;;;;;;;4995636;28;92578;-74
2023/04/08 07:27:36;;;;;;;13.43;10.77;;;;;;;;;;5015869;28;94171;-74
2023/04/08 07:30:02;;;;;;;15.02;10.98;;;;;;;;;;4996588;28;91707;-74
2023/04/08 07:32:29;;;;;;;17.52;11.10;;;;;;;;;;4992770;28;92484;-74
2023/04/08 07:34:55;;;;;;;20.02;10.73;;;;;;;;;;4990894;28;93763;-73
2023/04/08 07:37:22;;;;;;;13.02;10.73;;;;;;;;;;5000395;28;95454;-73
2023/04/08 07:39:48;;;;;;;16.48;10.73;;;;;;;;;;5016167;28;96058;-74
2023/04/08 07:42:14;;;;;;;12.68;10.40;;;;;;;;;;5011734;28;93412;-74
2023/04/08 07:44:41;;;;;;;13.57;10.80;;;;;;;;;;5015839;28;94279;-74
2023/04/08 07:47:08;;;;;;;14.20;10.38;;;;;;;;;;5006219;28;93693;-73
2023/04/08 07:49:34;;;;;;;13.10;10.07;;;;;;;;;;4999339;28;94465;-74
2023/04/08 07:52:00;;;;;;;13.50;10.60;;;;;;;;;;4995971;28;93228;-74
2023/04/08 07:54:27;;;;;;;17.77;11.55;;;;;;;;;;4996452;28;91683;-73
2023/04/08 07:56:53;;;;;;;13.65;10.15;;;;;;;;;;4995909;28;92411;-73
2023/04/08 07:59:19;;;;;;;15.50;10.27;;;;;;;;;;4997267;28;93180;-74
2023/04/08 08:01:46;;;;;;;13.18;10.13;;;;;;;;;;5001477;28;95848;-74
2023/04/08 08:04:12;;;;;;;16.20;10.07;;;;;;;;;;4996903;28;92614;-74
2023/04/08 08:06:39;;;;;;;14.30;10.38;;;;;;;;;;4975815;28;93290;-73
2023/04/08 08:09:06;;;;;;;15.43;9.85;;;;;;;;;;5000534;28;94157;-74
2023/04/08 08:11:32;;;;;;;14.50;10.82;;;;;;;;;;4999538;28;92516;-73
2023/04/08 08:13:58;;;;;;;12.80;10.25;;;;;;;;;;4995331;28;93544;-73
2023/04/08 08:16:28;;;;;;;11.90;9.50;;;;;;;;;;4992808;28;92723;-73
2023/04/08 08:18:54;;;;;;;14.63;10.27;;;;;;;;;;5011642;28;91839;-73
2023/04/08 08:21:21;;;;;;;13.30;9.93;;;;;;;;;;5007960;28;94466;-75
2023/04/08 08:23:47;;;;;;;13.52;10.40;;;;;;;;;;4996435;28;92442;-73
2023/04/08 08:26:14;;;;;;;12.40;10.30;;;;;;;;;;5008562;28;95054;-74
2023/04/08 08:28:40;;;;;;;14.48;10.43;;;;;;;;;;4999218;28;93745;-73
2023/04/08 08:31:07;;;;;;;18.08;10.60;;;;;;;;;;5010582;28;93687;-74
2023/04/08 08:33:33;;;;;;;19.63;10.25;;;;;;;;;;4995877;28;94862;-73
2023/04/08 08:36:00;;;;;;;10.93;8.40;;;;;;;;;;5008339;28;92393;-73
2023/04/08 08:38:26;;;;;;;14.02;8.07;;;;;;;;;;5014345;28;95387;-75
2023/04/08 08:40:55;;;;;;;9.75;7.22;;;;;;;;;;4998792;28;93542;-73
2023/04/08 08:43:21;;;;;;;8.30;6.60;;;;;;;;;;4995653;28;91720;-73
2023/04/08 08:45:48;;;;;;;9.63;6.57;;;;;;;;;;4993524;28;92371;-73
2023/04/08 08:48:14;;;;;;;13.40;7.68;;;;;;;;;;4995160;28;94809;-73
2023/04/08 08:50:40;;;;;;;10.52;7.43;;;;;;;;;;4998972;28;95072;-72
2023/04/08 08:53:06;;;;;;;8.82;6.43;;;;;;;;;;4998074;28;95477;-70
2023/04/08 08:55:33;;;;;;;9.25;6.78;;;;;;;;;;4995928;28;92396;-75
2023/04/08 08:58:19;;;;;;;10.80;6.60;;;;;;;;;;4991365;28;94435;-75
2023/04/08 09:00:45;;;;;;;16.50;7.53;;;;;;;;;;5007905;28;93411;-75
2023/04/08 09:03:15;;;;;;;8.38;6.85;;;;;;;;;;5012089;28;92573;-74
2023/04/08 09:05:48;;;;;;;12.27;6.57;;;;;;;;;;5003336;28;94280;-74
2023/04/08 09:08:44;;;;;;;9.70;7.10;;;;;;;;;;4992855;28;92569;-75
2023/04/08 09:11:17;;;;;;;9.82;6.80;;;;;;;;;;5009266;28;92644;-75
2023/04/08 09:13:44;;;;;;;9.52;7.22;;;;;;;;;;5010778;28;96003;-74
2023/04/08 09:16:17;;;;;;;10.98;7.47;;;;;;;;;;4995410;28;96857;-74
2023/04/08 09:18:45;;;;;;;10.52;7.25;;;;;;;;;;4981418;28;96013;-75
2023/04/08 09:21:13;;;;;;;16.38;7.65;;;;;;;;;;4995623;28;93528;-74
2023/04/08 09:23:46;;;;;;;11.77;8.00;;;;;;;;;;4989618;28;92637;-74
2023/04/08 09:26:18;;;;;;;12.70;8.43;;;;;;;;;;5009584;28;93159;-74
2023/04/08 09:28:56;;;;;;;11.02;7.45;;;;;;;;;;5003213;28;94029;-74
2023/04/08 09:31:27;;;;;;;10.00;7.65;;;;;;;;;;5002843;28;93712;-75
2023/04/08 09:33:53;;;;;;;;;;;;;;;;;;5009700;28;93196;-74
2023/04/08 09:36:19;;;;;;;11.40;7.95;;;;;;;;;;4995834;28;122620;-75
2023/04/08 09:38:46;;;;;;;14.15;8.40;;;;;;;;;;5004712;28;92491;-75
2023/04/08 09:41:15;;;;;;;11.88;8.60;;;;;;;;;;5005310;28;95838;-75
2023/04/08 09:43:53;;;;;;;9.18;7.53;;;;;;;;;;5002662;28;93115;-75
2023/04/08 09:46:31;;;;;;;12.70;7.70;;;;;;;;;;5011144;28;94210;-75
2023/04/08 09:49:03;;;;;;;9.93;8.23;;;;;;;;;;5003261;28;93234;-75
2023/04/08 09:51:32;;;;;;;9.80;8.38;;;;;;;;;;5001624;28;92501;-75
2023/04/08 09:54:00;;;;;;;13.23;8.88;;;;;;;;;;5000689;28;93499;-75
2023/04/08 09:56:29;;;;;;;11.20;9.30;;;;;;;;;;4994645;28;93423;-75
2023/04/08 09:59:00;;;;;;;13.52;8.35;;;;;;;;;;4995334;28;91684;-75
2023/04/08 10:01:43;;;;;;;13.80;9.20;;;;;;;;;;4997819;28;92487;-75
2023/04/08 10:04:13;;;;;;;13.23;8.32;;;;;;;;;;4998322;28;92802;-75
2023/04/08 10:06:40;;;;;;;15.53;9.27;;;;;;;;;;5005595;28;94993;-75
2023/04/08 10:09:06;;;;;;;8.75;7.85;;;;;;;;;;5013966;28;93845;-75
2023/04/08 10:11:33;;;;;;;11.77;7.50;;;;;;;;;;5002654;28;92517;-76
2023/04/08 10:14:00;;;;;;;8.50;7.30;;;;;;;;;;5006486;28;93199;-75
2023/04/08 10:16:27;;;;;;;10.55;7.43;;;;;;;;;;5008911;28;93875;-75
2023/04/08 10:18:56;;;;;;;9.75;8.18;;;;;;;;;;4995055;28;92412;-75
2023/04/08 10:21:32;;;;;;;12.05;7.90;;;;;;;;;;4999021;28;93784;-75
2023/04/08 10:24:00;;;;;;;8.45;7.45;;;;;;;;;;5014564;28;92675;-75
2023/04/08 10:26:32;;;;;;;8.77;7.68;;;;;;;;;;5009560;28;92863;-75
2023/04/08 10:29:21;;;;;;;8.68;7.50;;;;;;;;;;4993831;28;93416;-75
2023/04/08 10:31:49;;;;;;;13.85;8.35;;;;;;;;;;4987674;28;95318;-75
2023/04/08 10:34:26;;;;;;;8.35;7.07;;;;;;;;;;5011928;28;95564;-76
2023/04/08 10:36:54;;;;;;;8.93;6.80;;;;;;;;;;5011087;28;93637;-75
2023/04/08 10:39:21;;;;;;;7.30;6.25;;;;;;;;;;5012217;28;92496;-76
2023/04/08 10:41:48;;;;;;;11.43;7.30;;;;;;;;;;4995848;28;92946;-75
2023/04/08 10:44:15;;;;;;;7.32;6.53;;;;;;;;;;5000552;28;93513;-76
2023/04/08 10:46:42;;;;;;;12.32;6.80;;;;;;;;;;4994852;28;93197;-75
2023/04/08 10:49:08;;;;;;;11.75;7.47;;;;;;;;;;4974239;28;92856;-75
2023/04/08 10:51:35;;;;;;;10.73;6.70;;;;;;;;;;4998785;28;92445;-75
2023/04/08 10:54:06;;;;;;;7.75;6.80;;;;;;;;;;4991711;28;93085;-75
2023/04/08 10:56:33;;;;;;;7.22;6.47;;;;;;;;;;4989444;28;96870;-75
2023/04/08 10:58:59;;;;;;;8.05;6.35;;;;;;;;;;4993710;28;92633;-74
2023/04/08 11:01:26;;;;;;;15.85;6.90;;;;;;;;;;4994972;28;93198;-74
2023/04/08 11:03:52;;;;;;;10.23;7.15;;;;;;;;;;4996433;28;93589;-73
2023/04/08 11:06:19;;;;;;;9.57;6.80;;;;;;;;;;4994817;28;92743;-74
2023/04/08 11:08:46;;;;;;;9.43;6.80;;;;;;;;;;5002516;28;94932;-72
2023/04/08 11:11:13;;;;;;;9.05;6.80;;;;;;;;;;5003464;28;92533;-74
2023/04/08 11:13:43;;;;;;;9.27;6.55;;;;;;;;;;5008051;28;93269;-75
2023/04/08 11:16:19;;;;;;;10.75;7.07;;;;;;;;;;5008447;28;93426;-72
2023/04/08 11:18:46;;;;;;;10.25;6.75;;;;;;;;;;5011284;28;92510;-73
2023/04/08 11:21:13;;;;;;;8.90;6.95;;;;;;;;;;5005699;28;94886;-74
2023/04/08 11:23:41;;;;;;;8.52;6.70;;;;;;;;;;5003557;28;94013;-74
2023/04/08 11:26:07;;;;;;;12.68;7.18;;;;;;;;;;5008223;28;92376;-75
2023/04/08 11:28:34;;;;;;;11.18;7.53;;;;;;;;;;5003867;28;93241;-77
2023/04/08 11:31:03;;;;;;;9.52;7.40;;;;;;;;;;4995124;28;94332;-75
2023/04/08 11:33:30;;;;;;;10.43;7.55;;;;;;;;;;5001379;28;93148;-78
2023/04/08 11:35:56;;;;;;;12.18;7.30;;;;;;;;;;5015443;28;94143;-76
2023/04/08 11:38:23;;;;;;;12.40;6.95;;;;;;;;;;5002535;28;91824;-76
2023/04/08 11:40:57;;;;;;;12.77;7.18;;;;;;;;;;4994715;28;92509;-76
2023/04/08 11:43:25;;;;;;;10.05;7.00;;;;;;;;;;5007516;28;93437;-76
2023/04/08 11:45:51;;;;;;;15.98;7.65;;;;;;;;;;5015099;28;94851;-75
2023/04/08 11:48:18;;;;;;;12.27;7.47;;;;;;;;;;4999818;28;94415;-75
2023/04/08 11:50:44;;;;;;;12.50;6.95;;;;;;;;;;5009317;28;92981;-75
2023/04/08 11:53:18;;;;;;;11.85;7.43;;;;;;;;;;5012325;28;93168;-75
2023/04/08 11:55:45;;;;;;;11.38;7.53;;;;;;;;;;5016382;28;93928;-75
2023/04/08 11:58:11;;;;;;;10.98;6.93;;;;;;;;;;5010107;28;92502;-75
2023/04/08 12:00:38;;;;;;;13.73;7.40;;;;;;;;;;5009578;28;93179;-75
2023/04/08 12:03:05;;;;;;;9.95;7.28;;;;;;;;;;5005074;28;91762;-75
2023/04/08 12:05:32;;;;;;;10.60;6.47;;;;;;;;;;5016060;28;92599;-74
2023/04/08 12:07:58;;;;;;;12.38;6.82;;;;;;;;;;5012243;28;93047;-75
2023/04/08 12:10:24;;;;;;;10.75;6.80;;;;;;;;;;5003320;28;96478;-75
2023/04/08 12:12:51;;;;;;;11.10;6.47;;;;;;;;;;5001901;28;92612;-76
2023/04/08 12:15:17;;;;;;;18.15;6.80;;;;;;;;;;4996113;28;93322;-75
2023/04/08 12:17:43;;;;;;;14.68;6.47;;;;;;;;;;5000772;28;92769;-75
2023/04/08 12:20:10;;;;;;;10.82;6.60;;;;;;;;;;5016160;28;93490;-75
2023/04/08 12:22:37;;;;;;;11.48;5.60;;;;;;;;;;5003941;28;92618;-75
2023/04/08 12:25:03;;;;;;;9.45;6.00;;;;;;;;;;4992857;28;92631;-74
2023/04/08 12:27:32;;;;;;;9.30;6.65;;;;;;;;;;4997632;28;93299;-74
2023/04/08 12:29:59;;;;;;;12.75;6.30;;;;;;;;;;5016276;28;94103;-75
2023/04/08 12:32:25;;;;;;;10.93;6.40;;;;;;;;;;5014333;28;92503;-74
2023/04/08 12:34:52;;;;;;;9.35;5.85;;;;;;;;;;5015340;28;95162;-74
2023/04/08 12:37:19;;;;;;;12.65;6.03;;;;;;;;;;5013928;28;92448;-75
2023/04/08 12:39:46;;;;;;;8.95;5.90;;;;;;;;;;5016209;28;93479;-74
2023/04/08 12:42:13;;;;;;;11.88;5.30;;;;;;;;;;5012634;28;94427;-75
2023/04/08 12:44:39;;;;;;;14.25;5.80;;;;;;;;;;4996676;28;92691;-74
2023/04/08 12:47:05;;;;;;;8.23;5.55;;;;;;;;;;4992011;28;93281;-74
2023/04/08 12:49:32;;;;;;;9.27;5.57;;;;;;;;;;5012370;28;94056;-74
2023/04/08 12:52:12;;;;;;;8.73;5.87;;;;;;;;;;5013042;28;92151;-74
2023/04/08 12:54:38;;;;;;;9.95;5.43;;;;;;;;;;4997841;28;93774;-74
2023/04/08 12:57:04;;;;;;;8.63;5.05;;;;;;;;;;4995823;28;93084;-74
2023/04/08 12:59:32;;;;;;;7.45;5.55;;;;;;;;;;4992990;28;94753;-74
2023/04/08 13:01:58;;;;;;;7.70;4.82;;;;;;;;;;4993529;28;96218;-75
2023/04/08 13:04:25;;;;;;;7.68;4.70;;;;;;;;;;4993708;28;92511;-75
2023/04/08 13:06:51;;;;;;;6.45;4.15;;;;;;;;;;4995636;28;93161;-76
2023/04/08 13:09:18;;;;;;;6.85;4.82;;;;;;;;;;4994958;28;93746;-75
2023/04/08 13:11:44;;;;;;;9.65;3.90;;;;;;;;;;4993549;28;93124;-75
2023/04/08 13:14:12;;;;;;;5.03;4.03;;;;;;;;;;4996880;28;93118;-75
2023/04/08 13:16:38;;;;;;;5.50;4.78;;;;;;;;;;5013268;28;92700;-76
2023/04/08 13:19:05;;;;;;;6.13;4.60;;;;;;;;;;4994098;28;92674;-75
2023/04/08 13:21:32;;;;;;;5.60;4.80;;;;;;;;;;4993547;28;93452;-75
2023/04/08 13:23:58;;;;;;;6.25;5.60;;;;;;;;;;5011169;28;94952;-75
2023/04/08 13:26:25;;;;;;;7.78;5.57;;;;;;;;;;5015216;28;95688;-75
2023/04/08 13:28:52;;;;;;;4.95;4.10;;;;;;;;;;5013838;28;93682;-75
2023/04/08 13:31:23;;;;;;;9.00;4.90;;;;;;;;;;5013040;28;92498;-75
2023/04/08 13:33:50;;;;;;;5.72;4.50;;;;;;;;;;4999340;28;93098;-75
2023/04/08 13:36:16;;;;;;;7.93;5.07;;;;;;;;;;5004819;28;93497;-75
2023/04/08 13:38:44;;;;;;;6.13;5.20;;;;;;;;;;4998303;28;92474;-75
2023/04/08 13:41:10;;;;;;;5.05;4.55;;;;;;;;;;4992851;28;93966;-75
2023/04/08 13:43:37;;;;;;;5.97;5.22;;;;;;;;;;5011599;28;92883;-75
2023/04/08 13:46:03;;;;;;;6.15;4.80;;;;;;;;;;5014305;28;95707;-76
2023/04/08 13:48:30;;;;;;;10.20;5.38;;;;;;;;;;4977559;28;96761;-75
2023/04/08 13:50:56;;;;;;;6.55;4.70;;;;;;;;;;4982381;28;92480;-75
2023/04/08 13:53:23;;;;;;;8.88;4.75;;;;;;;;;;4998417;28;92452;-75
2023/04/08 13:55:53;;;;;;;6.13;5.40;;;;;;;;;;4993745;28;93727;-75
2023/04/08 13:58:20;;;;;;;5.53;4.93;;;;;;;;;;4994940;28;92401;-75
2023/04/08 14:00:52;;;;;;;8.75;5.85;;;;;;;;;;4997545;28;93420;-75
2023/04/08 14:03:18;;;;;;;7.53;6.22;;;;;;;;;;4998620;28;92569;-75
2023/04/08 14:05:45;;;;;;;7.88;5.05;;;;;;;;;;5015067;28;93252;-75
2023/04/08 14:08:12;;;;;;;7.90;5.68;;;;;;;;;;5012151;28;93301;-75
2023/04/08 14:10:39;;;;;;;5.03;4.57;;;;;;;;;;5014548;28;92448;-75
2023/04/08 14:13:05;;;;;;;6.40;4.82;;;;;;;;;;5004480;28;94835;-75
2023/04/08 14:15:32;;;;;;;10.77;5.38;;;;;;;;;;4992691;28;93292;-74
2023/04/08 14:17:59;;;;;;;24.52;6.70;;;;;;;;;;4995755;28;92445;-74
2023/04/08 14:20:26;;;;;;;6.63;5.53;;;;;;;;;;4994184;28;93518;-77
2023/04/08 14:22:52;;;;;;;8.20;5.97;;;;;;;;;;4997512;28;94222;-77